Portada
METAR-TAF:

METAR-TAF

Aeropuertos :

Yazd, Irán

latitud: 31-54N, longitud: 054-24E, altitud: 1238 m

Observación

El informe se hizo hace 1 hora y 0 minutos, a las 22:00 UTC
Viento 6 kt del oeste-suroeste
Temperatura 9°C
Humedad 71%
Presión 1015 hPa
Visibilidad: 8000 m

METAR: OIYY 202200Z 24006KT 8000 NSC 09/04 Q1015

Hora: 02:30 (23:00 UTC)


TAF: falta

Observaciones y pronósticos meteorológicos de más de 4000 aeropuertos (mensajes METAR y TAF).

Los puntos amarillos y rojos representan las estaciones disponibles.

Ponga el ratón en el punto deseado para ver el nombre de la estación.

Haga clic para ver las observaciones y los pronósticos meteorológicos.

Para cambiar el mapa : haga clic en los botones verdes con una cruz de color negro para hacer un zoom, en el botón verde con un guión para alejar o en las flechas verdes para mapas adyacentes.


METAR-TAF: